Time;durP1;ratioP1;P1;durP2;ratioP2;P2;SDS_P1;SDS_P2;PMS_P1;PMS_P2;Temp;Humidity;BMP_temperature;BMP_pressure;BME280_temperature;BME280_humidity;BME280_pressure;Samples;Min_cycle;Max_cycle;Signal;HPM_P1;HPM_P2
2021/01/30 00:00:08;;;;;;;1.85;1.02;;;;;;;18.50;48.59;100339.19;5014030;28;20099;-73
2021/01/30 00:02:34;;;;;;;2.20;1.00;;;;;;;18.47;48.38;100313.03;5021244;28;20029;-72
2021/01/30 00:04:59;;;;;;;1.88;1.05;;;;;;;18.51;48.56;100337.44;5013208;28;20501;-72
2021/01/30 00:07:25;;;;;;;2.00;1.17;;;;;;;18.50;48.51;100340.94;5013198;28;20034;-72
2021/01/30 00:09:50;;;;;;;1.55;0.95;;;;;;;18.43;48.67;100334.06;4996292;28;20057;-72
2021/01/30 00:12:16;;;;;;;3.20;1.23;;;;;;;18.41;48.37;100330.59;5018789;28;20026;-73
2021/01/30 00:14:41;;;;;;;1.67;1.00;;;;;;;18.47;48.39;100330.50;5012000;28;20036;-73
2021/01/30 00:17:08;;;;;;;1.65;1.08;;;;;;;18.48;48.14;100327.88;5011961;28;20064;-72
2021/01/30 00:19:35;;;;;;;1.30;0.90;;;;;;;18.47;48.30;100333.97;5024559;28;20456;-73
2021/01/30 00:22:04;;;;;;;2.10;1.50;;;;;;;18.45;48.20;100338.38;5014869;28;20022;-73
2021/01/30 00:24:30;;;;;;;1.83;1.20;;;;;;;18.46;48.35;100339.25;5014094;28;20040;-73
2021/01/30 00:27:01;;;;;;;1.80;0.80;;;;;;;18.42;48.10;100340.19;5016423;28;20030;-72
2021/01/30 00:29:30;;;;;;;2.97;1.20;;;;;;;18.42;48.22;100333.19;5015709;28;20483;-72
2021/01/30 00:31:56;;;;;;;2.95;0.85;;;;;;;18.42;47.97;100345.41;5017835;28;20476;-72
2021/01/30 00:34:23;;;;;;;1.20;0.75;;;;;;;18.43;47.93;100345.41;5001492;28;20037;-73
2021/01/30 00:36:54;;;;;;;2.45;1.63;;;;;;;18.41;47.98;100343.69;5024033;28;20444;-73
2021/01/30 00:39:19;;;;;;;1.45;0.77;;;;;;;18.41;47.88;100352.41;5019514;28;20029;-72
2021/01/30 00:41:45;;;;;;;1.60;0.80;;;;;;;18.42;47.85;100348.03;5020376;28;20104;-73
2021/01/30 00:44:11;;;;;;;1.92;0.80;;;;;;;18.41;47.87;100346.31;5013909;28;20543;-72
2021/01/30 00:46:36;;;;;;;2.17;0.90;;;;;;;18.37;48.07;100345.47;5003224;28;20037;-72
2021/01/30 00:49:02;;;;;;;1.63;0.80;;;;;;;18.40;47.96;100355.03;5004647;28;20026;-72
2021/01/30 00:51:28;;;;;;;1.60;0.90;;;;;;;18.40;47.89;100355.03;5026208;28;20025;-72
2021/01/30 00:53:53;;;;;;;1.42;0.90;;;;;;;18.37;47.92;100350.69;5011182;28;20036;-73
2021/01/30 00:56:19;;;;;;;1.75;1.02;;;;;;;18.38;47.94;100351.56;5014123;28;20111;-73
2021/01/30 00:58:45;;;;;;;2.63;1.20;;;;;;;18.34;47.89;100339.41;4996896;28;20121;-72
2021/01/30 01:01:11;;;;;;;1.60;0.93;;;;;;;18.37;47.67;100339.38;5019553;28;20033;-72
2021/01/30 01:03:37;;;;;;;1.17;0.70;;;;;;;18.31;47.85;100331.56;5019976;28;20026;-73
2021/01/30 01:06:04;;;;;;;2.00;1.15;;;;;;;18.35;47.76;100343.75;5018370;28;20029;-73
2021/01/30 01:08:31;;;;;;;1.63;0.70;;;;;;;18.30;47.65;100342.97;5019582;28;20056;-74
2021/01/30 01:10:59;;;;;;;2.17;1.20;;;;;;;18.35;47.85;100348.97;5017420;28;20059;-73
2021/01/30 01:13:27;;;;;;;3.95;2.05;;;;;;;18.32;47.73;100355.13;5018280;28;20057;-73
2021/01/30 01:15:54;;;;;;;1.45;0.60;;;;;;;18.31;47.55;100350.75;5016673;28;20022;-73
2021/01/30 01:18:19;;;;;;;1.17;0.70;;;;;;;18.34;47.58;100376.03;5013240;28;20037;-74
2021/01/30 01:20:45;;;;;;;2.03;0.80;;;;;;;18.32;47.76;100376.06;5014999;28;20469;-73
2021/01/30 01:23:11;;;;;;;4.00;1.10;;;;;;;18.33;47.64;100376.91;5016034;28;20029;-73
2021/01/30 01:25:37;;;;;;;2.45;1.48;;;;;;;18.29;47.62;100370.88;5016685;28;20069;-73
2021/01/30 01:28:03;;;;;;;1.60;0.90;;;;;;;18.28;47.53;100368.28;4998725;28;20061;-73
2021/01/30 01:30:28;;;;;;;1.00;0.70;;;;;;;18.30;47.68;100382.22;5022586;28;20387;-72
2021/01/30 01:32:54;;;;;;;1.55;0.80;;;;;;;18.22;47.66;100371.81;5023349;28;20029;-73
2021/01/30 01:35:25;;;;;;;1.40;0.85;;;;;;;18.27;47.40;100364.78;5022309;28;20029;-73
2021/01/30 01:37:51;;;;;;;1.08;0.73;;;;;;;18.29;47.53;100370.00;5022073;28;20104;-72
2021/01/30 01:40:19;;;;;;;2.78;1.25;;;;;;;18.24;47.46;100358.72;5021483;28;20040;-72
2021/01/30 01:42:44;;;;;;;1.42;0.90;;;;;;;18.25;47.34;100373.53;5023229;28;20022;-72
2021/01/30 01:45:10;;;;;;;1.75;1.05;;;;;;;18.27;47.31;100390.09;5018942;28;20048;-73
2021/01/30 01:47:46;;;;;;;1.25;0.75;;;;;;;18.27;47.60;100380.50;5020648;28;20033;-73
2021/01/30 01:50:29;;;;;;;3.15;0.70;;;;;;;18.26;47.11;100384.00;5029421;28;20484;-73
2021/01/30 01:53:04;;;;;;;1.55;0.70;;;;;;;18.26;47.35;100385.75;5029784;28;20045;-73
2021/01/30 01:55:31;;;;;;;1.80;0.73;;;;;;;18.26;47.26;100390.97;5024524;28;20029;-72
2021/01/30 01:58:01;;;;;;;1.48;0.90;;;;;;;18.23;47.29;100386.63;5006403;28;20061;-72
2021/01/30 02:00:27;;;;;;;1.00;0.90;;;;;;;18.24;47.21;100393.59;5019473;28;20103;-73
2021/01/30 02:02:55;;;;;;;1.85;1.00;;;;;;;18.22;46.74;100392.75;5018477;28;20029;-73
2021/01/30 02:05:26;;;;;;;1.83;0.82;;;;;;;18.23;47.09;100389.25;5031003;28;20045;-72
2021/01/30 02:07:55;;;;;;;1.33;0.65;;;;;;;18.22;47.07;100398.00;5037590;28;20025;-72
2021/01/30 02:10:23;;;;;;;2.25;1.33;;;;;;;18.22;47.24;100403.22;5024571;28;20105;-72
2021/01/30 02:12:51;;;;;;;1.15;0.82;;;;;;;18.17;47.03;100392.81;5016729;28;20041;-72
2021/01/30 02:15:19;;;;;;;1.25;0.75;;;;;;;18.21;47.13;100402.34;5005217;28;20065;-72
2021/01/30 02:18:11;;;;;;;1.02;0.73;;;;;;;18.22;47.10;100400.59;5022173;28;20029;-72
2021/01/30 02:20:50;;;;;;;1.10;0.73;;;;;;;18.20;47.13;100399.75;5017083;28;20040;-73
2021/01/30 02:23:40;;;;;;;1.20;0.73;;;;;;;18.20;47.03;100389.28;5016331;28;20101;-73
2021/01/30 02:26:40;;;;;;;1.80;0.68;;;;;;;18.18;47.17;100389.28;5017200;28;20032;-72
2021/01/30 02:29:27;;;;;;;1.33;0.65;;;;;;;18.17;46.89;100387.59;5022055;28;20033;-72
2021/01/30 02:32:14;;;;;;;1.20;0.75;;;;;;;18.16;47.00;100392.84;5024181;28;20026;-73
2021/01/30 02:34:58;;;;;;;1.42;0.80;;;;;;;18.15;46.87;100401.56;5020659;28;20025;-73
2021/01/30 02:37:36;;;;;;;1.35;0.90;;;;;;;18.13;46.96;100404.19;5019092;28;20049;-73
2021/01/30 02:40:06;;;;;;;3.20;1.58;;;;;;;18.16;46.54;100408.53;5018890;28;20822;-73
2021/01/30 02:42:42;;;;;;;1.33;0.98;;;;;;;18.15;46.59;100409.41;5023805;28;20057;-73
2021/01/30 02:45:17;;;;;;;1.30;0.63;;;;;;;18.11;46.63;100399.84;5015624;28;20507;-74
2021/01/30 02:47:52;;;;;;;1.83;1.20;;;;;;;18.14;46.48;100410.31;5023870;28;20430;-73
2021/01/30 02:50:22;;;;;;;1.00;0.70;;;;;;;18.15;46.34;100412.91;5018588;28;20034;-72
2021/01/30 02:52:53;;;;;;;1.67;1.05;;;;;;;18.13;46.62;100398.97;5023262;28;20030;-73
2021/01/30 02:55:20;;;;;;;1.67;0.75;;;;;;;18.08;46.57;100390.28;5016077;28;20079;-73
2021/01/30 02:57:47;;;;;;;1.30;0.80;;;;;;;18.13;46.71;100392.88;5021902;28;20473;-73
2021/01/30 03:00:16;;;;;;;1.50;0.82;;;;;;;18.11;46.65;100392.88;5019309;28;20080;-72
2021/01/30 03:02:44;;;;;;;1.35;0.98;;;;;;;18.11;46.40;100398.09;5014687;28;20108;-72
2021/01/30 03:05:12;;;;;;;1.25;0.80;;;;;;;18.12;46.43;100401.59;5005914;28;20025;-73
2021/01/30 03:07:43;;;;;;;3.10;0.90;;;;;;;18.09;46.29;100399.88;5015418;28;20112;-73
2021/01/30 03:10:29;;;;;;;0.98;0.68;;;;;;;18.09;46.44;100399.00;5029691;28;20396;-73
2021/01/30 03:13:20;;;;;;;2.05;0.73;;;;;;;18.08;46.30;100392.91;5016969;28;20072;-72
2021/01/30 03:16:02;;;;;;;1.23;0.70;;;;;;;18.09;46.16;100391.16;5013960;28;20022;-73
2021/01/30 03:18:34;;;;;;;1.00;0.75;;;;;;;18.04;46.43;100399.06;5015809;28;20392;-73
2021/01/30 03:21:04;;;;;;;4.10;0.73;;;;;;;18.08;46.45;100407.72;5018494;28;20117;-72
2021/01/30 03:23:30;;;;;;;0.90;0.60;;;;;;;18.08;46.17;100403.38;5015926;28;20037;-72
2021/01/30 03:26:00;;;;;;;1.58;0.77;;;;;;;18.05;46.49;100408.63;5016284;28;20028;-73
2021/01/30 03:28:26;;;;;;;0.70;0.57;;;;;;;18.06;46.06;100412.97;5023463;28;20056;-73
2021/01/30 03:30:52;;;;;;;1.58;0.70;;;;;;;18.05;46.36;100418.22;5017522;28;20040;-73
2021/01/30 03:33:17;;;;;;;1.77;0.80;;;;;;;18.01;46.19;100413.91;5022327;28;20033;-73
2021/01/30 03:35:43;;;;;;;0.75;0.65;;;;;;;17.97;46.55;100407.84;5007476;28;20030;-72
2021/01/30 03:38:08;;;;;;;0.80;0.65;;;;;;;18.00;46.42;100409.56;5023897;28;20025;-73
2021/01/30 03:40:34;;;;;;;1.13;0.70;;;;;;;18.02;46.33;100413.03;5019983;28;20079;-74
2021/01/30 03:42:59;;;;;;;0.73;0.50;;;;;;;18.03;46.18;100420.00;5021132;28;20038;-73
2021/01/30 03:45:28;;;;;;;0.82;0.57;;;;;;;18.02;46.33;100423.50;5021796;28;20038;-74
2021/01/30 03:47:54;;;;;;;0.73;0.65;;;;;;;18.01;46.39;100424.38;5018499;28;20036;-74
2021/01/30 03:50:20;;;;;;;0.75;0.50;;;;;;;18.00;45.93;100425.25;4999486;28;20042;-73
2021/01/30 03:52:45;;;;;;;0.82;0.70;;;;;;;18.01;46.18;100417.41;5022108;28;20036;-73
2021/01/30 03:55:11;;;;;;;1.55;0.90;;;;;;;18.02;45.99;100421.75;5015745;28;20025;-74
2021/01/30 03:57:37;;;;;;;1.02;0.70;;;;;;;18.13;45.69;100422.50;5014430;28;20029;-74
2021/01/30 04:00:08;;;;;;;1.13;0.60;;;;;;;18.18;45.55;100422.44;5014901;28;20042;-73
2021/01/30 04:02:34;;;;;;;1.20;0.70;;;;;;;18.23;45.93;100432.88;5018810;28;20097;-74
2021/01/30 04:04:59;;;;;;;0.60;0.50;;;;;;;18.23;45.88;100423.28;5014468;28;20116;-72
2021/01/30 04:07:25;;;;;;;0.85;0.65;;;;;;;18.27;45.67;100422.38;5008207;28;20029;-72
2021/01/30 04:09:50;;;;;;;1.40;0.70;;;;;;;18.35;45.54;100419.66;5000824;28;20128;-72
2021/01/30 04:12:17;;;;;;;0.52;0.43;;;;;;;18.33;45.71;100424.03;5017004;28;20030;-72
2021/01/30 04:14:42;;;;;;;0.98;0.70;;;;;;;18.28;45.76;100408.41;4992945;28;20135;-72
2021/01/30 04:17:09;;;;;;;1.00;0.52;;;;;;;18.38;45.50;100419.63;4991618;28;20116;-72
2021/01/30 04:19:36;;;;;;;0.55;0.50;;;;;;;18.41;45.65;100411.75;5005900;28;20083;-73
2021/01/30 04:22:02;;;;;;;2.58;0.80;;;;;;;18.41;45.69;100415.25;5020294;28;20030;-73
2021/01/30 04:24:28;;;;;;;0.98;0.60;;;;;;;18.40;45.76;100402.16;5009676;28;20037;-74
2021/01/30 04:26:54;;;;;;;1.38;0.68;;;;;;;18.49;45.79;100412.53;5019598;28;20034;-74
2021/01/30 04:29:20;;;;;;;0.50;0.50;;;;;;;18.46;45.46;100400.31;5019188;28;20117;-73
2021/01/30 04:31:45;;;;;;;1.33;0.98;;;;;;;18.45;45.77;100401.22;5015758;28;20105;-73
2021/01/30 04:34:10;;;;;;;0.77;0.57;;;;;;;18.50;45.73;100402.03;5016602;28;20036;-74
2021/01/30 04:36:36;;;;;;;1.45;0.85;;;;;;;18.55;45.65;100399.38;5015393;28;20041;-74
2021/01/30 04:39:02;;;;;;;1.00;0.60;;;;;;;18.53;45.49;100394.16;5013427;28;20033;-74
2021/01/30 04:41:49;;;;;;;1.42;0.73;;;;;;;18.51;45.51;100392.44;5019199;28;20045;-73
2021/01/30 04:44:27;;;;;;;1.05;0.73;;;;;;;18.59;45.93;100382.75;5020966;28;20029;-73
2021/01/30 04:47:07;;;;;;;1.15;0.60;;;;;;;18.63;45.47;100391.44;5013392;28;20080;-73
2021/01/30 04:50:02;;;;;;;0.68;0.50;;;;;;;18.57;45.43;100376.63;5013588;28;20473;-73
2021/01/30 04:52:55;;;;;;;0.85;0.65;;;;;;;18.59;45.59;100380.13;5021712;28;20052;-74
2021/01/30 04:55:51;;;;;;;0.77;0.65;;;;;;;18.61;45.24;100367.00;5013419;28;20084;-74
2021/01/30 04:58:58;;;;;;;0.90;0.50;;;;;;;18.57;45.26;100379.25;5023533;28;20037;-73
2021/01/30 05:02:03;;;;;;;0.40;0.40;;;;;;;18.61;45.28;100370.50;5010363;28;20033;-73
2021/01/30 05:04:36;;;;;;;0.77;0.57;;;;;;;18.63;45.44;100363.50;5015743;28;20427;-73
2021/01/30 05:07:10;;;;;;;1.67;0.82;;;;;;;18.61;45.44;100364.41;5017758;28;20514;-73
2021/01/30 05:09:38;;;;;;;0.80;0.60;;;;;;;18.62;45.36;100364.38;5018093;28;20081;-74
2021/01/30 05:12:12;;;;;;;0.52;0.47;;;;;;;18.68;45.18;100360.84;5022346;28;20104;-74
2021/01/30 05:14:46;;;;;;;1.00;0.43;;;;;;;18.62;45.17;100359.16;5020006;28;20069;-73
2021/01/30 05:17:22;;;;;;;0.77;0.50;;;;;;;18.60;45.36;100352.19;5014087;28;20018;-73
2021/01/30 05:19:56;;;;;;;1.20;0.60;;;;;;;18.66;45.50;100358.22;5014158;28;20034;-73
2021/01/30 05:22:34;;;;;;;0.77;0.55;;;;;;;18.68;45.35;100356.47;5018428;28;20417;-72
2021/01/30 05:24:59;;;;;;;1.55;1.00;;;;;;;18.58;45.40;100352.19;5014845;28;20033;-72
2021/01/30 05:27:44;;;;;;;0.57;0.47;;;;;;;18.63;45.23;100349.53;5012000;28;20030;-72
2021/01/30 05:30:24;;;;;;;0.73;0.43;;;;;;;18.71;45.16;100356.38;5023802;28;20026;-73
2021/01/30 05:33:04;;;;;;;1.08;0.68;;;;;;;18.68;45.16;100363.44;5015792;28;20088;-72
2021/01/30 05:35:36;;;;;;;1.27;0.60;;;;;;;18.66;45.19;100367.84;5013953;28;20030;-73
2021/01/30 05:38:07;;;;;;;1.08;0.40;;;;;;;18.72;45.27;100373.84;5012941;28;20407;-73
2021/01/30 05:40:41;;;;;;;0.63;0.50;;;;;;;18.69;45.03;100373.91;5011924;28;20037;-73
2021/01/30 05:43:21;;;;;;;0.77;0.45;;;;;;;18.67;45.24;100380.91;5019477;28;20033;-73
2021/01/30 05:45:52;;;;;;;1.00;0.88;;;;;;;18.66;45.03;100363.47;5016459;28;20025;-72
2021/01/30 05:48:24;;;;;;;1.02;0.70;;;;;;;18.72;45.08;100367.75;5024153;28;20030;-72
2021/01/30 05:51:27;;;;;;;0.95;0.63;;;;;;;18.68;45.39;100360.84;5014125;28;20079;-72
2021/01/30 05:53:52;;;;;;;0.98;0.60;;;;;;;18.72;45.22;100352.03;5013292;28;20045;-73
2021/01/30 05:56:17;;;;;;;0.57;0.57;;;;;;;18.75;45.17;100354.59;5022602;28;20072;-73
2021/01/30 05:58:46;;;;;;;0.47;0.45;;;;;;;18.69;44.99;100349.47;4991399;28;20432;-73
2021/01/30 06:01:31;;;;;;;1.05;0.68;;;;;;;18.70;45.13;100359.91;5013720;28;20076;-72
2021/01/30 06:04:03;;;;;;;0.80;0.50;;;;;;;18.77;44.97;100356.31;4999340;28;20029;-73
2021/01/30 06:06:39;;;;;;;0.90;0.50;;;;;;;18.73;45.11;100354.63;5012834;28;20026;-72
2021/01/30 06:09:06;;;;;;;0.60;0.40;;;;;;;18.70;45.15;100353.78;5019361;28;20461;-73
2021/01/30 06:11:46;;;;;;;0.88;0.50;;;;;;;18.78;44.98;100351.94;5022997;28;20029;-73
2021/01/30 06:14:25;;;;;;;0.75;0.60;;;;;;;18.74;44.90;100351.13;5018547;28;20036;-73
2021/01/30 06:16:58;;;;;;;0.70;0.60;;;;;;;18.73;44.86;100351.13;5017623;28;20033;-73
2021/01/30 06:19:25;;;;;;;0.73;0.45;;;;;;;18.74;45.07;100345.88;4996837;28;20036;-73
2021/01/30 06:22:27;;;;;;;0.70;0.50;;;;;;;18.79;44.95;100351.06;5003044;28;20041;-73
2021/01/30 06:24:52;;;;;;;0.60;0.40;;;;;;;18.73;45.20;100357.25;5024691;28;20025;-73
2021/01/30 06:27:42;;;;;;;1.33;0.50;;;;;;;18.76;44.96;100353.72;5020094;28;20373;-72
2021/01/30 06:30:12;;;;;;;1.10;0.60;;;;;;;18.75;44.90;100355.47;5026452;28;20522;-73
2021/01/30 06:32:45;;;;;;;0.55;0.45;;;;;;;18.70;45.02;100352.03;5007482;28;20038;-73
2021/01/30 06:35:19;;;;;;;1.60;1.00;;;;;;;18.64;45.41;100346.91;5014946;28;20026;-73
2021/01/30 06:37:52;;;;;;;0.60;0.30;;;;;;;18.57;45.25;100343.44;5020259;28;20029;-73
2021/01/30 06:40:26;;;;;;;0.52;0.40;;;;;;;18.58;45.38;100354.81;5018702;28;20030;-72
2021/01/30 06:43:11;;;;;;;0.80;0.50;;;;;;;18.51;45.40;100347.91;5027315;28;20566;-72
2021/01/30 06:45:40;;;;;;;0.47;0.32;;;;;;;18.49;45.50;100357.53;5020386;28;20144;-72
2021/01/30 06:48:08;;;;;;;0.40;0.40;;;;;;;18.48;45.61;100358.41;5014469;28;20064;-72
2021/01/30 06:50:41;;;;;;;0.63;0.50;;;;;;;18.43;45.50;100355.00;5015131;28;20025;-73
2021/01/30 06:53:18;;;;;;;0.95;0.60;;;;;;;18.44;45.55;100357.59;5023305;28;20076;-72
2021/01/30 06:55:45;;;;;;;1.15;0.60;;;;;;;18.44;45.45;100356.72;5017082;28;20479;-73
2021/01/30 06:58:38;;;;;;;0.40;0.32;;;;;;;18.41;45.37;100357.66;5016954;28;20034;-73
2021/01/30 07:01:10;;;;;;;0.63;0.55;;;;;;;18.41;45.73;100354.16;5021151;28;20105;-73
2021/01/30 07:04:05;;;;;;;2.00;1.27;;;;;;;18.39;45.39;100353.31;5019039;28;20036;-72
2021/01/30 07:07:02;;;;;;;1.23;0.52;;;;;;;18.37;45.51;100349.84;5005496;28;20042;-73
2021/01/30 07:09:43;;;;;;;1.08;0.65;;;;;;;18.37;45.25;100347.22;5020466;28;20100;-73
2021/01/30 07:12:20;;;;;;;0.52;0.47;;;;;;;18.36;45.18;100356.81;5015575;28;20037;-74
2021/01/30 07:15:15;;;;;;;0.60;0.60;;;;;;;18.36;44.79;100351.59;5021134;28;20125;-73
2021/01/30 07:17:58;;;;;;;0.95;0.50;;;;;;;18.34;45.00;100361.19;5024175;28;20018;-73
2021/01/30 07:20:58;;;;;;;0.80;0.65;;;;;;;18.36;44.81;100363.81;5018039;28;20423;-73
2021/01/30 07:23:41;;;;;;;0.90;0.70;;;;;;;18.36;44.74;100359.44;5026497;28;20427;-73
2021/01/30 07:26:33;;;;;;;2.95;1.10;;;;;;;18.37;44.84;100358.56;5018263;28;20022;-75
2021/01/30 07:29:04;;;;;;;2.65;0.85;;;;;;;18.38;44.87;100360.28;5016774;28;20034;-73
2021/01/30 07:31:40;;;;;;;4.40;1.30;;;;;;;18.36;45.40;100361.19;5020622;28;20022;-72
2021/01/30 07:34:12;;;;;;;5.85;1.35;;;;;;;18.34;45.44;100355.09;5023775;28;20076;-73
2021/01/30 07:36:45;;;;;;;3.15;1.48;;;;;;;18.42;45.25;100358.50;5025022;28;20036;-74
2021/01/30 07:39:32;;;;;;;5.18;1.80;;;;;;;18.39;45.84;100361.16;5018896;28;20060;-73
2021/01/30 07:42:03;;;;;;;4.35;1.90;;;;;;;18.30;45.90;100351.69;5023620;28;20040;-73
2021/01/30 07:44:51;;;;;;;4.20;1.90;;;;;;;18.32;45.88;100351.63;5014855;28;20038;-73
2021/01/30 07:47:26;;;;;;;4.50;2.10;;;;;;;18.32;46.01;100354.25;4996212;28;20045;-73
2021/01/30 07:49:59;;;;;;;6.50;2.45;;;;;;;18.29;46.03;100360.41;5028779;28;20468;-73
2021/01/30 07:52:29;;;;;;;3.83;1.88;;;;;;;18.22;46.04;100350.88;5022968;28;20029;-73
2021/01/30 07:54:57;;;;;;;4.00;1.75;;;;;;;18.27;46.04;100350.84;5018536;28;20072;-73
2021/01/30 07:57:56;;;;;;;5.97;2.17;;;;;;;18.27;46.13;100354.31;5020292;28;20046;-73
2021/01/30 08:00:33;;;;;;;4.57;2.35;;;;;;;18.21;45.90;100349.16;5015168;28;20064;-73
2021/01/30 08:03:26;;;;;;;5.50;2.33;;;;;;;18.21;46.01;100350.00;5023778;28;20029;-73
2021/01/30 08:06:24;;;;;;;4.90;1.90;;;;;;;18.17;45.82;100337.88;5015245;28;20026;-73
2021/01/30 08:09:19;;;;;;;4.63;1.83;;;;;;;18.24;45.92;100345.63;5023887;28;20056;-74
2021/01/30 08:11:57;;;;;;;4.50;1.98;;;;;;;18.24;45.78;100343.88;5016419;28;20030;-73
2021/01/30 08:14:43;;;;;;;3.53;1.75;;;;;;;18.28;45.83;100350.81;5026785;28;20025;-73
2021/01/30 08:17:43;;;;;;;4.10;1.73;;;;;;;18.42;45.17;100342.81;5019916;28;20021;-73
2021/01/30 08:20:26;;;;;;;3.88;1.77;;;;;;;18.41;45.45;100352.41;5019910;28;20080;-74
2021/01/30 08:22:57;;;;;;;3.38;1.77;;;;;;;18.42;45.45;100345.41;5013438;28;20064;-74
2021/01/30 08:25:32;;;;;;;2.95;1.60;;;;;;;18.49;45.41;100344.44;5020710;28;20480;-74
2021/01/30 08:28:15;;;;;;;5.80;2.08;;;;;;;18.49;45.27;100334.84;5015205;28;20040;-74
2021/01/30 08:30:45;;;;;;;3.13;1.92;;;;;;;18.47;45.14;100333.97;5020366;28;20021;-74
2021/01/30 08:33:10;;;;;;;3.45;1.88;;;;;;;18.52;45.35;100342.66;5021472;28;20030;-74
2021/01/30 08:35:40;;;;;;;5.22;2.50;;;;;;;18.63;44.83;100337.31;5028036;28;20036;-75
2021/01/30 08:38:30;;;;;;;2.83;1.90;;;;;;;18.60;45.02;100333.84;5026731;28;20032;-73
2021/01/30 08:41:23;;;;;;;4.03;1.77;;;;;;;18.59;45.16;100326.88;5027612;28;20366;-74
2021/01/30 08:43:53;;;;;;;2.88;1.23;;;;;;;18.63;44.96;100326.84;5013076;28;20053;-75
2021/01/30 08:46:40;;;;;;;6.20;1.80;;;;;;;18.63;44.87;100326.84;5013026;28;20033;-75
2021/01/30 08:49:21;;;;;;;3.63;1.88;;;;;;;18.62;44.98;100321.63;5018307;28;20099;-74
2021/01/30 08:52:12;;;;;;;2.20;1.23;;;;;;;18.70;44.97;100319.75;5018599;28;20490;-74
2021/01/30 08:54:41;;;;;;;2.10;1.40;;;;;;;18.71;44.74;100314.47;5014881;28;20033;-74
2021/01/30 08:57:34;;;;;;;4.32;1.60;;;;;;;18.66;44.78;100316.31;5017857;28;20032;-74
2021/01/30 09:00:04;;;;;;;4.85;3.10;;;;;;;18.68;44.91;100308.44;5017054;28;20042;-74
2021/01/30 09:02:29;;;;;;;2.33;1.20;;;;;;;18.73;44.85;100307.47;5017273;28;20049;-75
2021/01/30 09:05:06;;;;;;;2.92;1.30;;;;;;;18.70;44.66;100301.41;5022819;28;20079;-75
2021/01/30 09:07:37;;;;;;;2.60;1.55;;;;;;;18.70;44.86;100306.66;5015995;28;20017;-75
2021/01/30 09:10:12;;;;;;;1.70;1.17;;;;;;;18.78;44.61;100297.81;5018999;28;20556;-75
2021/01/30 09:12:56;;;;;;;3.20;1.98;;;;;;;18.76;44.58;100299.59;5017595;28;20030;-75
2021/01/30 09:15:40;;;;;;;1.90;1.10;;;;;;;18.76;44.54;100309.19;5015117;28;20026;-75
2021/01/30 09:18:18;;;;;;;1.67;1.00;;;;;;;18.81;44.49;100313.50;5020555;28;20108;-74
2021/01/30 09:21:02;;;;;;;3.95;1.90;;;;;;;18.80;44.62;100311.75;5022085;28;20041;-74
2021/01/30 09:23:39;;;;;;;2.58;1.27;;;;;;;18.76;44.49;100317.06;5019808;28;20552;-75
2021/01/30 09:26:22;;;;;;;2.38;1.35;;;;;;;18.75;44.71;100300.47;5019182;28;20440;-76
2021/01/30 09:28:55;;;;;;;2.65;1.50;;;;;;;18.77;44.52;100297.84;5021504;28;20049;-75
2021/01/30 09:31:21;;;;;;;1.70;1.08;;;;;;;18.78;44.45;100315.28;5026059;28;20098;-74
2021/01/30 09:33:56;;;;;;;2.55;1.38;;;;;;;18.89;45.07;100303.75;5018429;28;20056;-75
2021/01/30 09:36:33;;;;;;;3.97;2.13;;;;;;;18.92;44.28;100316.81;5025685;28;20038;-75
2021/01/30 09:38:59;;;;;;;2.10;1.08;;;;;;;18.95;44.34;100308.03;5013696;28;20160;-77
2021/01/30 09:41:30;;;;;;;3.63;1.00;;;;;;;18.91;44.44;100303.72;5003747;28;20384;-75
2021/01/30 09:44:05;;;;;;;2.35;1.15;;;;;;;18.91;44.43;100301.97;5014918;28;20029;-74
2021/01/30 09:46:36;;;;;;;1.95;1.08;;;;;;;18.92;44.38;100302.84;5016637;28;20041;-74
2021/01/30 09:49:08;;;;;;;1.35;0.85;;;;;;;19.00;44.23;100305.34;5008800;28;20049;-75
2021/01/30 09:51:39;;;;;;;3.83;1.00;;;;;;;19.00;44.31;100313.19;5024852;28;20108;-75
2021/01/30 09:54:13;;;;;;;1.38;1.00;;;;;;;18.94;44.47;100305.44;5025074;28;20022;-73
2021/01/30 09:56:39;;;;;;;1.60;1.02;;;;;;;19.06;44.28;100308.75;5030172;28;20083;-72
2021/01/30 09:59:06;;;;;;;1.67;1.00;;;;;;;19.13;44.30;100309.50;4998735;28;20026;-75
2021/01/30 10:01:46;;;;;;;4.75;3.10;;;;;;;19.03;44.43;100321.03;5026207;28;20053;-75
2021/01/30 10:04:24;;;;;;;1.73;1.00;;;;;;;19.03;44.50;100314.03;5015855;28;20061;-75
2021/01/30 10:06:52;;;;;;;2.75;1.77;;;;;;;19.06;44.52;100323.59;5022314;28;20472;-75
2021/01/30 10:09:20;;;;;;;3.03;0.90;;;;;;;19.02;44.39;100324.53;5024416;28;20096;-76
2021/01/30 10:11:57;;;;;;;2.53;1.40;;;;;;;19.05;44.48;100316.63;5018031;28;20072;-76
2021/01/30 10:14:25;;;;;;;1.75;1.08;;;;;;;19.03;44.44;100311.41;5026133;28;20021;-78
2021/01/30 10:17:01;;;;;;;1.98;1.10;;;;;;;19.02;44.56;100307.06;5020333;28;20043;-79
2021/01/30 10:19:33;;;;;;;1.90;1.27;;;;;;;19.04;44.62;100307.91;5030526;28;20420;-77
2021/01/30 10:21:58;;;;;;;1.38;1.00;;;;;;;19.14;44.58;100314.72;5026599;28;20022;-75
2021/01/30 10:24:27;;;;;;;2.30;1.35;;;;;;;19.10;44.44;100297.28;5015678;28;20374;-75
2021/01/30 10:27:10;;;;;;;3.50;1.13;;;;;;;19.09;44.61;100307.81;5021063;28;20018;-75
2021/01/30 10:29:36;;;;;;;1.77;1.23;;;;;;;19.14;44.69;100311.22;5019389;28;20116;-75
2021/01/30 10:32:06;;;;;;;3.30;1.10;;;;;;;19.14;44.43;100309.47;4993807;28;20072;-75
2021/01/30 10:34:51;;;;;;;2.75;1.23;;;;;;;19.10;44.46;100312.16;5020313;28;20026;-75
2021/01/30 10:37:22;;;;;;;1.58;0.98;;;;;;;19.16;44.62;100315.56;5025736;28;20536;-75
2021/01/30 10:39:56;;;;;;;2.28;0.90;;;;;;;19.17;44.54;100312.06;5024432;28;20121;-74
2021/01/30 10:42:24;;;;;;;1.83;0.93;;;;;;;19.07;44.55;100301.75;5035748;28;20134;-74
2021/01/30 10:44:58;;;;;;;1.75;0.77;;;;;;;19.14;44.65;100308.59;5031811;28;20448;-76
2021/01/30 10:47:26;;;;;;;2.05;1.13;;;;;;;19.20;44.23;100313.75;5023543;28;20061;-76
2021/01/30 10:50:02;;;;;;;2.17;1.40;;;;;;;19.15;44.26;100316.44;4996422;28;20029;-75
2021/01/30 10:52:27;;;;;;;1.95;1.13;;;;;;;19.16;44.63;100323.44;5020719;28;20167;-75
2021/01/30 10:54:53;;;;;;;1.25;0.90;;;;;;;19.19;44.21;100314.66;5015275;28;20451;-75
2021/01/30 10:57:18;;;;;;;1.85;0.85;;;;;;;19.18;44.27;100324.28;5016019;28;20030;-75
2021/01/30 10:59:54;;;;;;;3.30;0.98;;;;;;;19.18;44.55;100324.28;5017850;28;20029;-73
2021/01/30 11:02:20;;;;;;;1.75;1.10;;;;;;;19.26;44.48;100313.66;5016255;28;20492;-73
2021/01/30 11:05:19;;;;;;;1.52;0.70;;;;;;;19.20;44.18;100316.38;5020950;28;20115;-77
2021/01/30 11:07:55;;;;;;;1.52;1.13;;;;;;;19.17;44.49;100319.03;5008613;28;20041;-81
2021/01/30 11:10:38;;;;;;;2.08;1.17;;;;;;;19.30;44.39;100315.34;5027402;28;20435;-76
2021/01/30 11:13:11;;;;;;;0.90;0.60;;;;;;;19.30;44.22;100312.72;5015996;28;20124;-73
2021/01/30 11:15:42;;;;;;;1.95;0.80;;;;;;;19.27;44.64;100307.53;5014188;28;20030;-80
2021/01/30 11:18:12;;;;;;;1.67;0.95;;;;;;;19.33;45.26;100304.81;5014439;28;20112;-74
2021/01/30 11:20:40;;;;;;;2.00;1.10;;;;;;;19.38;44.78;100297.72;5017830;28;20029;-74
2021/01/30 11:23:06;;;;;;;6.50;1.10;;;;;;;19.30;45.09;100293.50;5021312;28;20076;-80
2021/01/30 11:25:40;;;;;;;2.30;1.33;;;;;;;19.28;45.43;100285.66;5015240;28;20033;-77
2021/01/30 11:28:05;;;;;;;2.00;1.10;;;;;;;19.36;45.42;100294.25;5018497;28;20014;-74
2021/01/30 11:30:31;;;;;;;5.10;1.17;;;;;;;19.38;43.87;100296.84;5023389;28;20049;-76
2021/01/30 11:33:01;;;;;;;4.90;1.45;;;;;;;19.13;44.24;100288.53;5019246;28;20034;-74
2021/01/30 11:35:29;;;;;;;4.90;1.77;;;;;;;19.12;44.03;100294.66;5024563;28;20037;-79
2021/01/30 11:38:00;;;;;;;4.55;1.27;;;;;;;19.13;44.29;100285.91;5030315;28;20026;-75
2021/01/30 11:40:26;;;;;;;2.17;1.08;;;;;;;19.22;44.59;100275.25;5017767;28;20107;-77
2021/01/30 11:42:51;;;;;;;3.08;1.20;;;;;;;19.34;44.62;100282.94;5001528;28;20064;-80
2021/01/30 11:45:16;;;;;;;3.65;1.90;;;;;;;19.29;44.30;100271.66;4992613;28;20116;-80
2021/01/30 11:47:42;;;;;;;6.38;2.35;;;;;;;19.31;44.25;100276.88;5018752;28;20041;-78
2021/01/30 11:50:08;;;;;;;2.80;1.23;;;;;;;19.33;45.00;100270.72;4995799;28;20033;-76
2021/01/30 11:52:34;;;;;;;2.67;2.17;;;;;;;19.35;45.06;100271.53;5003866;28;20101;-74